Time;durP1;ratioP1;P1;durP2;ratioP2;P2;SDS_P1;SDS_P2;PMS_P1;PMS_P2;Temp;Humidity;BMP_temperature;BMP_pressure;BME280_temperature;BME280_humidity;BME280_pressure;Samples;Min_cycle;Max_cycle;Signal;HPM_P1;HPM_P2
2024/03/26 00:00:17;;;;;;;13.80;13.30;;;22.10;1.00;;;;;;2612233;54;20167;-64
2024/03/26 00:02:43;;;;;;;13.97;13.47;;;22.10;1.00;;;;;;2612707;54;20143;-65
2024/03/26 00:05:09;;;;;;;13.90;13.40;;;22.10;1.00;;;;;;2612385;54;20155;-65
2024/03/26 00:07:35;;;;;;;14.00;13.50;;;22.10;1.00;;;;;;2612591;54;20268;-66
2024/03/26 00:10:02;;;;;;;14.40;13.90;;;22.10;1.00;;;;;;2613792;54;20147;-66
2024/03/26 00:12:27;;;;;;;13.67;13.20;;;22.10;1.00;;;;;;2611891;47;21019;-66
2024/03/26 00:14:53;;;;;;;13.80;13.30;;;22.10;1.00;;;;;;2613063;54;20420;-65
2024/03/26 00:17:19;;;;;;;13.93;13.43;;;22.10;1.00;;;;;;2613077;54;20170;-65
2024/03/26 00:19:44;;;;;;;13.83;13.33;;;22.10;1.00;;;;;;2613336;54;20175;-65
2024/03/26 00:22:10;;;;;;;14.27;13.77;;;22.00;1.00;;;;;;2613360;54;20690;-64
2024/03/26 00:24:36;;;;;;;14.17;13.67;;;22.00;1.00;;;;;;2613558;54;20139;-74
2024/03/26 00:27:02;;;;;;;14.10;13.60;;;22.00;1.00;;;;;;2614623;54;20150;-72
2024/03/26 00:29:27;;;;;;;14.20;13.70;;;22.00;1.00;;;;;;2613899;54;20759;-73
2024/03/26 00:31:53;;;;;;;14.10;13.60;;;22.00;1.00;;;;;;2613480;54;20147;-73
2024/03/26 00:34:19;;;;;;;14.30;13.80;;;22.00;1.00;;;;;;2613806;54;20154;-72
2024/03/26 00:36:44;;;;;;;14.33;13.83;;;22.00;1.00;;;;;;2614400;54;20149;-74
2024/03/26 00:39:10;;;;;;;14.03;13.53;;;22.00;1.00;;;;;;2615607;31;20739;-73
2024/03/26 00:41:36;;;;;;;14.10;13.60;;;22.00;1.00;;;;;;2613400;54;20143;-73
2024/03/26 00:44:02;;;;;;;13.87;13.37;;;22.00;1.00;;;;;;2613972;54;20154;-74
2024/03/26 00:46:27;;;;;;;14.20;13.70;;;22.00;1.00;;;;;;2613966;54;20158;-73
2024/03/26 00:48:53;;;;;;;14.30;13.80;;;22.00;1.00;;;;;;2613551;54;20418;-73
2024/03/26 00:51:19;;;;;;;13.80;13.30;;;22.00;1.00;;;;;;2614228;54;20159;-73
2024/03/26 00:53:45;;;;;;;13.80;13.30;;;22.00;1.00;;;;;;2614328;54;20716;-72
2024/03/26 00:56:10;;;;;;;14.20;13.70;;;21.90;1.00;;;;;;2614558;54;20186;-73
2024/03/26 00:58:36;;;;;;;14.20;13.70;;;21.90;1.00;;;;;;2613660;54;20424;-72
2024/03/26 01:01:09;;;;;;;13.80;13.30;;;21.90;1.00;;;;;;2612335;54;20644;-73
2024/03/26 01:03:35;;;;;;;14.50;14.00;;;22.00;1.00;;;;;;2613169;54;21420;-73
2024/03/26 01:06:00;;;;;;;14.40;13.90;;;22.00;1.00;;;;;;2614111;54;20431;-72
2024/03/26 01:08:26;;;;;;;14.20;13.70;;;22.00;1.00;;;;;;2610685;54;20400;-73
2024/03/26 01:10:52;;;;;;;13.77;13.27;;;21.90;1.00;;;;;;2613634;54;20162;-73
2024/03/26 01:13:18;;;;;;;13.10;12.70;;;21.90;1.00;;;;;;2613435;54;20166;-74
2024/03/26 01:15:44;;;;;;;13.30;12.90;;;21.90;1.00;;;;;;2613955;39;20486;-62
2024/03/26 01:18:10;;;;;;;13.00;12.60;;;21.90;1.00;;;;;;2613005;54;20400;-62
2024/03/26 01:20:37;;;;;;;14.13;13.63;;;21.90;1.00;;;;;;2612641;54;20427;-62
2024/03/26 01:23:03;;;;;;;13.57;13.17;;;21.90;1.00;;;;;;2612310;54;20396;-63
2024/03/26 01:25:29;;;;;;;13.00;12.60;;;21.90;1.00;;;;;;2613497;31;20781;-66
2024/03/26 01:27:56;;;;;;;13.10;12.70;;;21.90;1.00;;;;;;2612895;54;20403;-66
2024/03/26 01:30:23;;;;;;;14.03;13.53;;;21.90;1.00;;;;;;2612161;54;20206;-66
2024/03/26 01:32:49;;;;;;;16.80;15.97;;;21.90;1.00;;;;;;2612573;54;20419;-67
2024/03/26 01:35:15;;;;;;;13.90;13.40;;;21.90;1.00;;;;;;2613757;39;20853;-78
2024/03/26 01:37:41;;;;;;;13.80;13.30;;;21.90;1.00;;;;;;2614350;54;20400;-78
2024/03/26 01:40:08;;;;;;;13.90;13.40;;;21.90;1.00;;;;;;2614223;54;20724;-78
2024/03/26 01:42:35;;;;;;;13.70;13.20;;;21.90;1.00;;;;;;2614352;54;20166;-77
2024/03/26 01:45:04;;;;;;;13.90;13.40;;;21.90;1.00;;;;;;2613932;54;20419;-78
2024/03/26 01:47:37;;;;;;;13.73;13.23;;;21.80;1.00;;;;;;2614148;39;20662;-78
2024/03/26 01:50:09;;;;;;;13.43;13.00;;;21.80;1.00;;;;;;2613762;54;20503;-78
2024/03/26 01:52:36;;;;;;;13.40;13.00;;;21.80;1.00;;;;;;2613667;47;20439;-78
2024/03/26 01:55:02;;;;;;;13.87;13.37;;;21.80;1.00;;;;;;2614467;54;20440;-78
2024/03/26 01:57:29;;;;;;;14.20;13.70;;;21.80;1.00;;;;;;2614208;54;20434;-78
2024/03/26 02:00:19;;;;;;;15.10;14.60;;;21.80;1.00;;;;;;2613059;54;20450;-78
2024/03/26 02:02:45;;;;;;;14.23;13.73;;;21.80;1.00;;;;;;2611214;54;20531;-76
2024/03/26 02:05:11;;;;;;;14.23;13.73;;;21.80;1.00;;;;;;2609881;39;20639;-77
2024/03/26 02:07:38;;;;;;;14.10;13.60;;;21.80;1.00;;;;;;2611544;54;20138;-77
2024/03/26 02:10:06;;;;;;;14.40;13.90;;;21.80;1.00;;;;;;2612181;54;20403;-78
2024/03/26 02:12:32;;;;;;;13.80;13.30;;;21.80;1.00;;;;;;2612717;54;20407;-78
2024/03/26 02:14:57;;;;;;;14.00;13.50;;;21.80;1.00;;;;;;2612402;47;20423;-78
2024/03/26 02:17:23;;;;;;;13.40;13.00;;;21.80;1.00;;;;;;2612345;54;20222;-78
2024/03/26 02:19:49;;;;;;;13.70;13.20;;;21.80;1.00;;;;;;2612465;39;20563;-77
2024/03/26 02:22:14;;;;;;;14.20;13.70;;;21.80;1.00;;;;;;2612550;54;20155;-76
2024/03/26 02:24:40;;;;;;;13.17;12.77;;;21.80;1.00;;;;;;2611542;54;20305;-66
2024/03/26 02:27:06;;;;;;;13.50;13.00;;;21.70;1.00;;;;;;2611585;54;20264;-65
2024/03/26 02:29:31;;;;;;;13.90;13.40;;;21.70;1.00;;;;;;2611695;39;20632;-66
2024/03/26 02:31:57;;;;;;;13.90;13.40;;;21.70;1.00;;;;;;2611598;54;20139;-66
2024/03/26 02:34:23;;;;;;;13.90;13.40;;;21.70;1.00;;;;;;2610965;54;20803;-68
2024/03/26 02:36:48;;;;;;;14.10;13.60;;;21.70;1.00;;;;;;2611443;54;20146;-67
2024/03/26 02:39:14;;;;;;;13.80;13.30;;;21.70;1.00;;;;;;2611807;54;20177;-68
2024/03/26 02:41:41;;;;;;;14.20;13.70;;;21.70;1.00;;;;;;2612495;54;20147;-68
2024/03/26 02:44:06;;;;;;;13.57;13.10;;;21.70;1.00;;;;;;2612745;54;20143;-67
2024/03/26 02:46:32;;;;;;;14.03;13.53;;;21.70;1.00;;;;;;2614681;54;20421;-77
2024/03/26 02:48:58;;;;;;;14.10;13.60;;;21.70;1.00;;;;;;2615618;39;21166;-77
2024/03/26 02:51:24;;;;;;;13.87;13.37;;;21.70;1.00;;;;;;2614722;54;20187;-79
2024/03/26 02:53:50;;;;;;;13.40;13.00;;;21.70;1.00;;;;;;2614176;39;20797;-77
2024/03/26 02:56:16;;;;;;;13.60;13.10;;;21.70;1.00;;;;;;2614107;54;20487;-76
2024/03/26 02:58:42;;;;;;;13.90;13.40;;;21.70;1.00;;;;;;2613842;39;21935;-77
2024/03/26 03:01:11;;;;;;;13.73;13.23;;;21.70;1.00;;;;;;2613863;54;20403;-77
2024/03/26 03:03:40;;;;;;;14.00;13.50;;;21.70;1.00;;;;;;2614041;47;20162;-78
2024/03/26 03:06:07;;;;;;;13.53;13.03;;;21.70;1.00;;;;;;2612604;54;20410;-78
2024/03/26 03:08:34;;;;;;;14.00;13.50;;;21.70;1.00;;;;;;2614430;54;20419;-78
2024/03/26 03:11:00;;;;;;;13.70;13.20;;;21.70;1.00;;;;;;2614014;54;20411;-77
2024/03/26 03:13:26;;;;;;;13.33;12.93;;;21.70;1.00;;;;;;2613293;54;20391;-77
2024/03/26 03:15:51;;;;;;;16.07;15.50;;;21.70;1.00;;;;;;2613687;54;20999;-78
2024/03/26 03:18:18;;;;;;;13.43;13.00;;;21.70;1.00;;;;;;2614903;54;20135;-78
2024/03/26 03:20:44;;;;;;;13.80;13.30;;;21.70;1.00;;;;;;2614166;39;20563;-77
2024/03/26 03:23:09;;;;;;;13.70;13.20;;;21.70;1.00;;;;;;2614223;54;20444;-77
2024/03/26 03:25:35;;;;;;;13.67;13.20;;;21.60;1.00;;;;;;2613610;54;20162;-78
2024/03/26 03:28:01;;;;;;;13.80;13.30;;;21.70;1.00;;;;;;2614189;54;20178;-77
2024/03/26 03:30:26;;;;;;;13.50;13.10;;;21.60;1.00;;;;;;2614216;54;20157;-78
2024/03/26 03:32:52;;;;;;;13.60;13.10;;;21.60;1.00;;;;;;2614014;54;20151;-77
2024/03/26 03:35:19;;;;;;;13.33;12.93;;;21.60;1.00;;;;;;2613442;54;20258;-72
2024/03/26 03:37:45;;;;;;;13.00;12.60;;;21.60;1.00;;;;;;2613576;54;20139;-72
2024/03/26 03:40:11;;;;;;;14.10;13.60;;;21.60;1.00;;;;;;2612773;54;20434;-72
2024/03/26 03:42:36;;;;;;;12.93;12.53;;;21.60;1.00;;;;;;2613483;54;20403;-73
2024/03/26 03:45:04;;;;;;;13.73;13.23;;;21.60;1.00;;;;;;2613410;54;20419;-65
2024/03/26 03:47:29;;;;;;;13.90;13.40;;;21.60;1.00;;;;;;2612847;54;20187;-64
2024/03/26 03:49:55;;;;;;;12.70;12.30;;;21.60;1.00;;;;;;2613058;39;20848;-65
2024/03/26 03:52:21;;;;;;;12.70;12.30;;;21.60;1.00;;;;;;2612590;54;20246;-66
2024/03/26 03:54:47;;;;;;;13.40;13.00;;;21.60;1.00;;;;;;2613214;39;20572;-68
2024/03/26 03:57:12;;;;;;;13.30;12.90;;;21.50;1.00;;;;;;2613075;54;20423;-67
2024/03/26 03:59:38;;;;;;;13.27;12.87;;;21.60;1.00;;;;;;2612279;54;20170;-66
2024/03/26 04:02:04;;;;;;;13.60;13.20;;;21.60;1.00;;;;;;2612904;54;20150;-66
2024/03/26 04:04:30;;;;;;;14.00;13.50;;;21.60;1.00;;;;;;2612834;54;20155;-68
2024/03/26 04:06:55;;;;;;;13.40;13.00;;;21.60;1.00;;;;;;2612365;47;20745;-68
2024/03/26 04:09:21;;;;;;;14.50;14.00;;;21.60;1.00;;;;;;2613632;54;20158;-68
2024/03/26 04:11:47;;;;;;;14.20;13.70;;;21.60;1.00;;;;;;2612433;39;20646;-67
2024/03/26 04:14:12;;;;;;;12.90;12.50;;;21.60;1.00;;;;;;2613337;54;20170;-67
2024/03/26 04:16:38;;;;;;;13.77;13.27;;;21.50;1.00;;;;;;2613595;39;20551;-67
2024/03/26 04:19:05;;;;;;;14.20;13.70;;;21.50;1.00;;;;;;2612832;54;20173;-68
2024/03/26 04:21:30;;;;;;;14.30;13.80;;;21.50;1.00;;;;;;2612370;54;20395;-67
2024/03/26 04:23:56;;;;;;;15.87;15.27;;;21.50;1.00;;;;;;2612525;47;20162;-68
2024/03/26 04:26:22;;;;;;;14.20;13.70;;;21.50;1.00;;;;;;2613614;54;20492;-67
2024/03/26 04:28:47;;;;;;;14.40;13.90;;;21.60;1.00;;;;;;2613404;54;20147;-68
2024/03/26 04:31:13;;;;;;;14.10;13.60;;;21.50;1.00;;;;;;2614126;54;20187;-67
2024/03/26 04:33:39;;;;;;;14.20;13.70;;;21.50;1.00;;;;;;2614531;54;20665;-67
2024/03/26 04:36:05;;;;;;;13.63;13.20;;;21.50;1.00;;;;;;2614100;39;20577;-67
2024/03/26 04:38:30;;;;;;;14.20;13.70;;;21.50;1.00;;;;;;2614875;54;20252;-68
2024/03/26 04:40:56;;;;;;;14.00;13.50;;;21.50;1.00;;;;;;2614390;54;20948;-67
2024/03/26 04:43:21;;;;;;;14.10;13.60;;;21.50;1.00;;;;;;2613916;54;20147;-67
2024/03/26 04:45:47;;;;;;;14.17;13.67;;;21.50;1.00;;;;;;2613269;54;20147;-65
2024/03/26 04:48:13;;;;;;;13.80;13.30;;;21.50;1.00;;;;;;2613856;47;20249;-66
2024/03/26 04:50:38;;;;;;;13.83;13.33;;;21.50;1.00;;;;;;2613654;54;20660;-64
2024/03/26 04:53:04;;;;;;;12.80;12.40;;;21.50;1.00;;;;;;2612578;54;20216;-65
2024/03/26 04:55:30;;;;;;;12.97;12.57;;;21.50;1.00;;;;;;2614302;54;20197;-66
2024/03/26 04:57:55;;;;;;;13.20;12.80;;;21.50;1.00;;;;;;2614538;39;20486;-66
2024/03/26 05:00:21;;;;;;;13.33;12.93;;;21.50;1.00;;;;;;2613325;54;20147;-66
2024/03/26 05:02:47;;;;;;;12.43;12.03;;;21.50;1.00;;;;;;2612796;47;20183;-67
2024/03/26 05:05:13;;;;;;;12.93;12.53;;;21.50;1.00;;;;;;2612549;54;20139;-68
2024/03/26 05:07:39;;;;;;;14.17;13.67;;;21.50;1.00;;;;;;2612981;54;20202;-68
2024/03/26 05:10:08;;;;;;;13.03;12.63;;;21.60;1.00;;;;;;2614120;54;20700;-68
2024/03/26 05:12:34;;;;;;;13.77;13.27;;;21.50;1.00;;;;;;2613951;54;20419;-68
2024/03/26 05:15:01;;;;;;;14.10;13.60;;;21.50;1.00;;;;;;2613709;54;20422;-67
2024/03/26 05:17:27;;;;;;;13.20;12.80;;;21.50;1.00;;;;;;2614321;54;20925;-68
2024/03/26 05:19:53;;;;;;;13.07;12.57;;;21.50;1.00;;;;;;2613201;47;20435;-69
2024/03/26 05:22:18;;;;;;;12.80;12.40;;;21.60;1.00;;;;;;2612963;54;20162;-68
2024/03/26 05:24:44;;;;;;;12.27;11.87;;;21.60;1.00;;;;;;2613576;54;20151;-67
2024/03/26 05:27:10;;;;;;;13.20;12.80;;;21.50;1.00;;;;;;2613551;54;20159;-68
2024/03/26 05:29:36;;;;;;;12.43;12.03;;;21.50;1.00;;;;;;2613125;54;20965;-69
2024/03/26 05:32:03;;;;;;;12.50;12.10;;;21.40;1.00;;;;;;2612970;54;20607;-68
2024/03/26 05:34:28;;;;;;;12.40;12.00;;;21.50;1.00;;;;;;2613840;54;21009;-68
2024/03/26 05:36:54;;;;;;;13.33;12.93;;;21.50;1.00;;;;;;2613671;54;20434;-68
2024/03/26 05:39:20;;;;;;;12.30;11.90;;;21.50;1.00;;;;;;2613606;54;21336;-67
2024/03/26 05:41:46;;;;;;;12.67;12.27;;;21.50;1.00;;;;;;2612509;54;20171;-69
2024/03/26 05:44:12;;;;;;;12.83;12.43;;;21.50;1.00;;;;;;2613368;39;20696;-69
2024/03/26 05:46:37;;;;;;;12.90;12.50;;;21.50;1.00;;;;;;2612644;54;20452;-68
2024/03/26 05:49:03;;;;;;;12.50;12.10;;;21.50;1.00;;;;;;2613839;39;20553;-68
2024/03/26 05:51:29;;;;;;;13.00;12.60;;;21.50;1.00;;;;;;2612545;54;20813;-68
2024/03/26 05:53:54;;;;;;;12.97;12.57;;;21.50;1.00;;;;;;2613547;39;20609;-69
2024/03/26 05:56:20;;;;;;;12.40;12.00;;;21.50;1.00;;;;;;2610960;54;20174;-68
2024/03/26 05:58:46;;;;;;;13.10;12.70;;;21.50;1.00;;;;;;2612291;54;20676;-68
2024/03/26 06:01:12;;;;;;;12.93;12.53;;;21.50;1.00;;;;;;2612252;54;20438;-67
2024/03/26 06:03:38;;;;;;;12.70;12.30;;;21.50;1.00;;;;;;2612201;54;20499;-67
2024/03/26 06:06:04;;;;;;;12.50;12.10;;;21.50;1.00;;;;;;2611622;54;20408;-72
2024/03/26 06:08:30;;;;;;;12.97;12.57;;;21.50;1.00;;;;;;2612209;54;20151;-69
2024/03/26 06:10:56;;;;;;;12.40;12.00;;;21.60;1.00;;;;;;2612791;54;20423;-69
2024/03/26 06:13:22;;;;;;;12.07;11.67;;;21.60;1.00;;;;;;2612465;54;20421;-68
2024/03/26 06:15:48;;;;;;;12.60;12.20;;;21.60;1.00;;;;;;2612104;47;20439;-64
2024/03/26 06:18:14;;;;;;;13.90;13.40;;;21.70;1.00;;;;;;2612344;54;20564;-64
2024/03/26 06:20:40;;;;;;;13.37;12.97;;;21.80;1.00;;;;;;2612018;54;20427;-65
2024/03/26 06:23:06;;;;;;;13.30;12.90;;;21.80;1.00;;;;;;2611687;39;20806;-66
2024/03/26 06:25:32;;;;;;;12.80;12.40;;;21.90;1.00;;;;;;2610258;31;20757;-66
2024/03/26 06:27:57;;;;;;;13.10;12.70;;;22.00;1.00;;;;;;2612106;54;20181;-66
2024/03/26 06:30:23;;;;;;;12.60;12.20;;;21.90;1.00;;;;;;2612420;54;20162;-66
2024/03/26 06:32:52;;;;;;;12.80;12.40;;;21.90;1.00;;;;;;2612952;54;20150;-66
2024/03/26 06:35:17;;;;;;;12.90;12.50;;;21.80;1.00;;;;;;2611841;54;20265;-67
2024/03/26 06:37:43;;;;;;;12.23;11.83;;;21.80;1.00;;;;;;2612544;54;20404;-66
2024/03/26 06:40:10;;;;;;;12.80;12.40;;;21.80;1.00;;;;;;2613399;39;20650;-65
2024/03/26 06:42:36;;;;;;;11.83;11.43;;;21.80;1.00;;;;;;2612747;54;20414;-66
2024/03/26 06:45:04;;;;;;;12.80;12.40;;;21.80;1.00;;;;;;2612789;54;20522;-66
2024/03/26 06:47:29;;;;;;;12.70;12.30;;;21.70;1.00;;;;;;2613004;54;20412;-66
2024/03/26 06:49:55;;;;;;;12.80;12.40;;;21.80;1.00;;;;;;2612383;54;20443;-67
2024/03/26 06:52:21;;;;;;;14.00;13.50;;;21.80;1.00;;;;;;2612081;54;20747;-67
2024/03/26 06:54:46;;;;;;;12.90;12.50;;;21.70;1.00;;;;;;2612567;47;20158;-67
2024/03/26 06:57:12;;;;;;;13.30;12.90;;;21.80;1.00;;;;;;2611512;54;20180;-67
2024/03/26 06:59:38;;;;;;;12.77;12.37;;;21.80;1.00;;;;;;2611936;54;20207;-67
2024/03/26 07:02:03;;;;;;;12.73;12.33;;;21.80;1.00;;;;;;2612561;54;20222;-66
2024/03/26 07:04:33;;;;;;;16.27;15.67;;;21.80;1.00;;;;;;2612557;54;20151;-71
2024/03/26 07:06:59;;;;;;;15.80;15.23;;;21.80;1.00;;;;;;2613786;51;20177;-76
2024/03/26 07:09:24;;;;;;;16.30;15.70;;;22.00;1.00;;;;;;2614165;54;20396;-75
2024/03/26 07:11:50;;;;;;;16.70;16.10;;;22.10;1.00;;;;;;2613603;54;20387;-75
2024/03/26 07:14:19;;;;;;;15.50;15.00;;;22.20;1.00;;;;;;2614397;54;20154;-87
2024/03/26 07:16:46;;;;;;;11.70;11.30;;;22.30;1.00;;;;;;2609652;54;20268;-68
2024/03/26 07:19:12;;;;;;;11.40;11.00;;;22.30;1.00;;;;;;2608186;39;20795;-68
2024/03/26 07:21:39;;;;;;;12.20;11.80;;;22.30;1.00;;;;;;2610797;51;20439;-69
2024/03/26 07:24:06;;;;;;;12.90;12.50;;;22.20;1.00;;;;;;2611407;47;20535;-68
2024/03/26 07:26:32;;;;;;;12.20;11.80;;;22.10;1.00;;;;;;2613233;47;20430;-72
2024/03/26 07:28:58;;;;;;;13.20;12.80;;;22.10;1.00;;;;;;2611781;47;20423;-72
2024/03/26 07:31:24;;;;;;;11.67;11.27;;;22.10;1.00;;;;;;2610245;54;20426;-72
2024/03/26 07:33:50;;;;;;;12.17;11.77;;;22.10;1.00;;;;;;2611369;54;20412;-72
2024/03/26 07:36:16;;;;;;;12.80;12.40;;;22.00;1.00;;;;;;2610361;50;20427;-72
2024/03/26 07:38:42;;;;;;;11.87;11.47;;;22.00;1.00;;;;;;2612615;39;21199;-72
2024/03/26 07:41:08;;;;;;;12.33;11.93;;;22.10;1.00;;;;;;2611486;54;20163;-73
2024/03/26 07:43:34;;;;;;;12.53;12.13;;;22.00;1.00;;;;;;2611613;54;21303;-73
2024/03/26 07:46:00;;;;;;;11.40;11.00;;;22.00;1.00;;;;;;2612192;54;20147;-73
2024/03/26 07:48:25;;;;;;;12.43;12.03;;;22.10;1.00;;;;;;2611969;54;20157;-72
2024/03/26 07:50:51;;;;;;;12.70;12.30;;;22.00;1.00;;;;;;2611538;54;20171;-72
2024/03/26 07:53:17;;;;;;;11.70;11.30;;;22.10;1.00;;;;;;2611818;54;20448;-71
2024/03/26 07:55:43;;;;;;;12.70;12.30;;;22.10;1.00;;;;;;2612021;54;20158;-72
2024/03/26 07:58:08;;;;;;;12.70;12.30;;;22.10;1.00;;;;;;2611010;54;20154;-72
2024/03/26 08:00:34;;;;;;;12.37;11.97;;;22.10;1.00;;;;;;2610812;54;20283;-72
2024/03/26 08:03:00;;;;;;;11.80;11.40;;;22.10;1.00;;;;;;2612665;54;20151;-72
2024/03/26 08:05:26;;;;;;;11.90;11.50;;;22.10;1.00;;;;;;2612563;54;20411;-72
2024/03/26 08:07:53;;;;;;;12.10;11.70;;;22.10;1.00;;;;;;2611888;54;20241;-72
2024/03/26 08:10:19;;;;;;;11.50;11.10;;;22.10;1.00;;;;;;2613115;47;20195;-72
2024/03/26 08:12:45;;;;;;;12.10;11.70;;;22.10;1.00;;;;;;2612764;54;20408;-72
2024/03/26 08:15:11;;;;;;;11.10;10.80;;;22.10;1.00;;;;;;2614155;54;20422;-72
2024/03/26 08:17:37;;;;;;;11.97;11.57;;;22.10;1.00;;;;;;2610150;54;20458;-72
2024/03/26 08:20:05;;;;;;;11.50;11.10;;;22.10;1.00;;;;;;2611574;54;22212;-72
2024/03/26 08:22:32;;;;;;;12.40;12.00;;;22.10;1.00;;;;;;2611651;54;20171;-72
2024/03/26 08:24:57;;;;;;;12.30;11.90;;;22.10;1.00;;;;;;2613143;54;20399;-62
2024/03/26 08:27:23;;;;;;;11.60;11.20;;;22.10;1.00;;;;;;2610279;54;20399;-62
2024/03/26 08:29:51;;;;;;;12.53;12.13;;;22.10;1.00;;;;;;2609401;54;20205;-62
2024/03/26 08:32:17;;;;;;;12.60;12.20;;;22.10;1.00;;;;;;2611115;54;20431;-63
2024/03/26 08:34:43;;;;;;;12.20;11.80;;;22.10;1.00;;;;;;2611637;54;20446;-64
2024/03/26 08:37:08;;;;;;;13.10;12.70;;;22.10;1.00;;;;;;2611756;54;20415;-64
2024/03/26 08:39:34;;;;;;;12.50;12.10;;;22.20;1.00;;;;;;2611705;54;20293;-65
2024/03/26 08:42:00;;;;;;;11.60;11.20;;;22.20;1.00;;;;;;2611371;54;20170;-65
2024/03/26 08:44:26;;;;;;;12.30;11.90;;;22.20;1.00;;;;;;2610998;54;20498;-65
2024/03/26 08:46:52;;;;;;;13.23;12.83;;;22.20;1.00;;;;;;2610775;54;21461;-65
2024/03/26 08:49:18;;;;;;;12.50;12.10;;;22.30;1.00;;;;;;2611869;54;20179;-65
2024/03/26 08:51:43;;;;;;;12.73;12.33;;;22.30;1.00;;;;;;2611012;54;20177;-65
2024/03/26 08:54:09;;;;;;;11.80;11.40;;;22.30;1.00;;;;;;2611895;54;20285;-65
2024/03/26 08:56:36;;;;;;;12.80;12.40;;;22.30;1.00;;;;;;2612565;54;20181;-65
2024/03/26 08:59:01;;;;;;;12.37;11.97;;;22.30;1.00;;;;;;2609573;39;21727;-65
2024/03/26 09:01:27;;;;;;;13.00;12.60;;;22.40;1.00;;;;;;2610791;54;20399;-64
2024/03/26 09:03:53;;;;;;;11.30;10.93;;;22.40;1.00;;;;;;2611833;54;20154;-65
2024/03/26 09:06:18;;;;;;;12.83;12.43;;;22.40;1.00;;;;;;2611872;54;20139;-65
2024/03/26 09:08:44;;;;;;;12.43;12.03;;;22.40;1.00;;;;;;2610304;54;20207;-66
2024/03/26 09:11:10;;;;;;;11.03;10.70;;;22.40;1.00;;;;;;2610640;54;20316;-64
2024/03/26 09:13:40;;;;;;;11.83;11.43;;;22.40;1.00;;;;;;2611998;54;20210;-65
2024/03/26 09:16:08;;;;;;;12.17;11.77;;;22.40;1.00;;;;;;2610813;54;20530;-66
2024/03/26 09:18:34;;;;;;;12.00;11.60;;;22.40;1.00;;;;;;2610502;54;20450;-66
2024/03/26 09:21:01;;;;;;;11.10;10.80;;;22.40;1.00;;;;;;2611534;54;20435;-65
2024/03/26 09:23:26;;;;;;;12.47;12.07;;;22.40;1.00;;;;;;2611728;47;20423;-65
2024/03/26 09:25:53;;;;;;;11.67;11.27;;;22.30;1.00;;;;;;2611696;54;20458;-65
2024/03/26 09:28:19;;;;;;;12.27;11.87;;;22.30;1.00;;;;;;2612714;54;20178;-65
2024/03/26 09:30:50;;;;;;;12.40;12.00;;;22.30;1.00;;;;;;2610982;54;20440;-65
2024/03/26 09:33:16;;;;;;;10.70;10.40;;;22.30;1.00;;;;;;2612611;39;20910;-65
2024/03/26 09:35:42;;;;;;;12.03;11.63;;;22.30;1.00;;;;;;2611713;54;20431;-63
2024/03/26 09:38:08;;;;;;;10.80;10.50;;;22.30;1.00;;;;;;2612393;46;20471;-62
2024/03/26 09:40:34;;;;;;;12.37;11.97;;;22.30;1.00;;;;;;2612831;54;20165;-62
2024/03/26 09:43:07;;;;;;;10.73;10.43;;;22.30;1.00;;;;;;2611262;54;20837;-62
2024/03/26 09:45:34;;;;;;;11.57;11.17;;;22.30;1.00;;;;;;2611119;54;20498;-62
2024/03/26 09:48:01;;;;;;;11.93;11.53;;;22.30;1.00;;;;;;2610531;54;20415;-62
2024/03/26 09:50:31;;;;;;;12.10;11.70;;;22.30;1.00;;;;;;2612149;54;20432;-62
2024/03/26 09:52:57;;;;;;;11.87;11.47;;;22.30;1.00;;;;;;2611043;54;20449;-62
2024/03/26 09:55:31;;;;;;;12.00;11.60;;;22.30;1.00;;;;;;2611901;47;20419;-62
2024/03/26 09:57:57;;;;;;;10.47;10.17;;;22.30;1.00;;;;;;2608540;47;20415;-62
2024/03/26 10:00:23;;;;;;;12.83;12.43;;;22.30;1.00;;;;;;2610730;54;20411;-63
2024/03/26 10:02:52;;;;;;;12.10;11.70;;;22.20;1.00;;;;;;2611584;54;20441;-63
2024/03/26 10:05:18;;;;;;;11.70;11.30;;;22.20;1.00;;;;;;2611588;54;20400;-63
2024/03/26 10:07:46;;;;;;;11.80;11.40;;;22.20;1.00;;;;;;2610803;54;21087;-62
2024/03/26 10:10:13;;;;;;;12.10;11.70;;;22.20;1.00;;;;;;2611877;47;20166;-63
2024/03/26 10:12:40;;;;;;;11.60;11.20;;;22.20;1.00;;;;;;2610188;54;20418;-63
2024/03/26 10:15:06;;;;;;;12.60;12.20;;;22.20;1.00;;;;;;2611674;54;20428;-63
2024/03/26 10:17:36;;;;;;;12.70;12.30;;;22.20;1.00;;;;;;2612627;54;20420;-63
2024/03/26 10:20:04;;;;;;;11.77;11.37;;;22.20;1.00;;;;;;2612323;47;20551;-62
2024/03/26 10:22:30;;;;;;;13.00;12.60;;;22.30;1.00;;;;;;2613085;39;20826;-63
2024/03/26 10:24:56;;;;;;;12.57;12.17;;;22.30;1.00;;;;;;2611604;54;20407;-62
2024/03/26 10:27:22;;;;;;;12.70;12.30;;;22.30;1.00;;;;;;2611046;54;20530;-62
2024/03/26 10:29:52;;;;;;;12.67;12.27;;;22.30;1.00;;;;;;2612425;54;20988;-62
2024/03/26 10:32:22;;;;;;;11.63;11.23;;;22.30;1.00;;;;;;2611569;54;20171;-62
2024/03/26 10:34:54;;;;;;;13.00;12.60;;;22.30;1.00;;;;;;2612031;54;20419;-68
2024/03/26 10:37:29;;;;;;;11.40;11.03;;;22.30;1.00;;;;;;2612004;54;20403;-69
2024/03/26 10:40:05;;;;;;;12.83;12.43;;;22.20;1.00;;;;;;2611577;54;20434;-69
2024/03/26 10:42:44;;;;;;;11.73;11.37;;;22.20;1.00;;;;;;2611678;54;20399;-68
2024/03/26 10:45:10;;;;;;;12.80;12.40;;;22.20;1.00;;;;;;2611475;47;20591;-65
2024/03/26 10:47:37;;;;;;;11.10;10.70;;;22.20;1.00;;;;;;2611627;54;20945;-65
2024/03/26 10:50:05;;;;;;;13.00;12.60;;;22.20;1.00;;;;;;2611714;54;20404;-65
2024/03/26 10:52:31;;;;;;;10.97;10.67;;;22.20;1.00;;;;;;2613194;39;20796;-65
2024/03/26 10:55:00;;;;;;;12.70;12.30;;;22.10;1.00;;;;;;2612663;39;20831;-72
2024/03/26 10:57:27;;;;;;;13.37;12.97;;;22.00;1.00;;;;;;2611336;54;20411;-71
2024/03/26 10:59:53;;;;;;;13.40;13.00;;;21.80;1.00;;;;;;2612225;54;20963;-73
2024/03/26 11:02:20;;;;;;;13.20;12.80;;;21.70;1.00;;;;;;2612355;54;20444;-72
2024/03/26 11:04:46;;;;;;;12.23;11.83;;;21.70;1.00;;;;;;2613095;54;20407;-72
2024/03/26 11:07:13;;;;;;;12.10;11.70;;;21.80;1.00;;;;;;2612642;54;20403;-73
2024/03/26 11:09:39;;;;;;;12.63;12.23;;;21.80;1.00;;;;;;2612993;54;20411;-73
2024/03/26 11:12:11;;;;;;;12.03;11.63;;;21.80;1.00;;;;;;2611856;54;20384;-73
2024/03/26 11:14:43;;;;;;;11.73;11.33;;;21.90;1.00;;;;;;2612143;54;20946;-73
2024/03/26 11:17:12;;;;;;;12.10;11.70;;;21.90;1.00;;;;;;2613040;39;20792;-72
2024/03/26 11:19:39;;;;;;;12.37;11.97;;;21.90;1.00;;;;;;2612748;54;20483;-73
2024/03/26 11:22:06;;;;;;;12.53;12.13;;;21.90;1.00;;;;;;2612304;54;20438;-72
2024/03/26 11:24:35;;;;;;;12.00;11.60;;;22.00;1.00;;;;;;2611409;54;20548;-72
2024/03/26 11:27:05;;;;;;;12.50;12.10;;;21.90;1.00;;;;;;2612294;54;20450;-72
2024/03/26 11:29:32;;;;;;;12.90;12.50;;;22.00;1.00;;;;;;2612428;54;20418;-73
2024/03/26 11:32:02;;;;;;;13.00;12.60;;;22.00;1.00;;;;;;2612666;54;20391;-72
2024/03/26 11:34:30;;;;;;;12.17;11.77;;;22.10;1.00;;;;;;2611955;54;20422;-72
2024/03/26 11:36:57;;;;;;;12.60;12.20;;;22.10;1.00;;;;;;2612864;39;20829;-72
2024/03/26 11:39:25;;;;;;;12.73;12.33;;;22.20;1.00;;;;;;2613368;47;20459;-75
2024/03/26 11:41:52;;;;;;;12.70;12.30;;;22.30;1.00;;;;;;2612114;47;20430;-74
2024/03/26 11:44:18;;;;;;;13.30;12.90;;;22.40;1.00;;;;;;2613147;54;20415;-68
2024/03/26 11:46:47;;;;;;;13.30;12.90;;;22.50;1.00;;;;;;2612885;54;20391;-69
2024/03/26 11:49:13;;;;;;;11.77;11.37;;;22.50;1.00;;;;;;2612473;54;20155;-68
2024/03/26 11:51:39;;;;;;;12.50;12.10;;;22.50;1.00;;;;;;2612997;54;20964;-68
2024/03/26 11:54:05;;;;;;;11.80;11.40;;;22.60;1.00;;;;;;2613432;54;20279;-69
2024/03/26 11:56:36;;;;;;;11.40;11.00;;;22.60;1.00;;;;;;2612451;54;20448;-63
2024/03/26 11:59:02;;;;;;;12.23;11.83;;;22.60;1.00;;;;;;2611854;54;21321;-63
2024/03/26 12:01:28;;;;;;;12.27;11.87;;;22.60;1.00;;;;;;2612652;54;20465;-63
2024/03/26 12:04:03;;;;;;;12.13;11.73;;;22.60;1.00;;;;;;2613224;54;20403;-62
2024/03/26 12:06:32;;;;;;;12.00;11.60;;;22.50;1.00;;;;;;2612911;54;20158;-75
2024/03/26 12:08:59;;;;;;;11.80;11.40;;;22.50;1.00;;;;;;2613551;54;21412;-75
2024/03/26 12:11:28;;;;;;;11.10;10.80;;;22.50;1.00;;;;;;2613489;39;20813;-75
2024/03/26 12:13:53;;;;;;;11.90;11.50;;;22.50;1.00;;;;;;2613118;39;20828;-74
2024/03/26 12:16:26;;;;;;;11.73;11.33;;;22.40;1.00;;;;;;2612817;47;20435;-75
2024/03/26 12:18:52;;;;;;;12.30;11.90;;;22.40;1.00;;;;;;2612648;54;20178;-75
2024/03/26 12:21:19;;;;;;;12.53;12.13;;;22.40;1.00;;;;;;2613308;54;20399;-74
2024/03/26 12:23:52;;;;;;;11.70;11.30;;;22.40;1.00;;;;;;2613611;54;20411;-75
2024/03/26 12:26:19;;;;;;;13.20;12.80;;;22.40;1.00;;;;;;2613649;54;20428;-75
2024/03/26 12:28:46;;;;;;;12.57;12.17;;;22.40;1.00;;;;;;2613213;54;20426;-75
2024/03/26 12:31:16;;;;;;;11.60;11.20;;;22.40;1.00;;;;;;2612958;54;21389;-75